createdAt,value
2022-11-26T00:01:17.730Z,252.98
2022-11-26T00:03:46.787Z,320.63
2022-11-26T00:06:26.500Z,269.83
2022-11-26T00:08:54.995Z,262.98
2022-11-26T00:11:23.563Z,286.98
2022-11-26T00:13:52.024Z,284.40
2022-11-26T00:16:22.006Z,275.30
2022-11-26T00:18:50.509Z,316.15
2022-11-26T00:21:21.904Z,301.83
2022-11-26T00:23:50.694Z,279.50
2022-11-26T00:26:22.588Z,270.13
2022-11-26T00:28:54.619Z,358.50
2022-11-26T00:31:25.294Z,303.92
2022-11-26T00:33:53.736Z,312.52
2022-11-26T00:36:25.497Z,252.18
2022-11-26T00:38:56.249Z,271.98
2022-11-26T00:41:27.115Z,305.75
2022-11-26T00:43:55.540Z,228.95
2022-11-26T00:46:26.674Z,279.33
2022-11-26T00:48:55.228Z,301.00
2022-11-26T00:51:26.261Z,229.10
2022-11-26T00:53:55.874Z,287.15
2022-11-26T00:56:24.774Z,246.32
2022-11-26T00:58:53.385Z,243.75
2022-11-26T01:01:24.003Z,247.77
2022-11-26T01:03:54.063Z,249.13
2022-11-26T01:06:24.011Z,239.88
2022-11-26T01:08:52.531Z,250.75
2022-11-26T01:11:24.460Z,233.65
2022-11-26T01:13:56.059Z,341.52
2022-11-26T01:16:26.343Z,274.67
2022-11-26T01:18:57.594Z,281.15
2022-11-26T01:21:27.969Z,290.83
2022-11-26T01:23:56.983Z,290.10
2022-11-26T01:26:27.480Z,284.15
2022-11-26T01:28:56.122Z,239.50
2022-11-26T01:31:26.488Z,256.00
2022-11-26T01:33:56.603Z,262.17
2022-11-26T01:36:30.659Z,265.33
2022-11-26T01:39:00.923Z,250.20
2022-11-26T01:41:42.582Z,248.77
2022-11-26T01:44:18.470Z,239.18
2022-11-26T01:46:47.209Z,269.10
2022-11-26T01:49:21.917Z,289.17
2022-11-26T01:54:19.402Z,239.55
2022-11-26T01:56:49.745Z,264.85
2022-11-26T01:59:21.599Z,247.57
2022-11-26T02:01:50.897Z,307.42
2022-11-26T02:04:23.265Z,304.17
2022-11-26T02:06:54.183Z,269.38
2022-11-26T02:09:22.885Z,250.23
2022-11-26T02:11:51.575Z,283.60
2022-11-26T02:14:22.513Z,302.25
2022-11-26T02:17:01.532Z,295.75
2022-11-26T02:19:54.981Z,306.38
2022-11-26T02:22:38.373Z,265.83
2022-11-26T02:25:13.101Z,276.70
2022-11-26T02:30:30.516Z,229.38
2022-11-26T02:33:01.868Z,251.32
2022-11-26T02:35:35.718Z,262.55
2022-11-26T02:38:07.618Z,264.88
2022-11-26T02:40:36.239Z,242.40
2022-11-26T02:43:04.779Z,295.48
2022-11-26T02:45:36.447Z,259.17
2022-11-26T02:48:06.823Z,267.70
2022-11-26T02:50:39.352Z,245.45
2022-11-26T02:53:09.294Z,263.25
2022-11-26T02:55:40.877Z,266.42
2022-11-26T02:58:09.500Z,267.17
2022-11-26T03:00:42.282Z,248.80
2022-11-26T03:03:17.062Z,287.23
2022-11-26T03:08:13.860Z,265.13
2022-11-26T03:10:42.318Z,293.42
2022-11-26T03:13:10.787Z,283.60
2022-11-26T03:15:40.555Z,256.45
2022-11-26T03:18:09.064Z,305.25
2022-11-26T03:20:37.530Z,256.67
2022-11-26T03:23:06.107Z,298.83
2022-11-26T03:25:34.834Z,257.30
2022-11-26T03:28:03.536Z,311.33
2022-11-26T03:30:32.132Z,292.17
2022-11-26T03:33:01.995Z,291.77
2022-11-26T03:35:30.487Z,289.88
2022-11-26T03:37:58.913Z,261.20
2022-11-26T03:40:27.379Z,276.15
2022-11-26T03:42:55.881Z,249.15
2022-11-26T03:45:24.344Z,284.27
2022-11-26T03:47:52.882Z,301.23
2022-11-26T03:50:22.730Z,266.67
2022-11-26T03:52:51.386Z,226.45
2022-11-26T03:55:19.949Z,236.55
2022-11-26T03:57:48.364Z,266.00
2022-11-26T04:00:17.689Z,269.23
2022-11-26T04:02:46.273Z,258.13
2022-11-26T04:05:14.760Z,274.30
2022-11-26T04:07:44.550Z,262.45
2022-11-26T04:10:13.031Z,268.75
2022-11-26T04:12:41.391Z,278.38
2022-11-26T04:15:10.912Z,235.32
2022-11-26T04:17:39.287Z,265.30
2022-11-26T04:20:09.097Z,292.08
2022-11-26T04:22:37.545Z,265.52
2022-11-26T04:25:07.861Z,251.30
2022-11-26T04:27:36.315Z,269.67
2022-11-26T04:30:05.154Z,287.63
2022-11-26T04:32:33.630Z,260.50
2022-11-26T04:35:02.049Z,245.30
2022-11-26T04:37:30.482Z,258.40
2022-11-26T04:39:58.823Z,257.52
2022-11-26T04:42:28.603Z,270.55
2022-11-26T04:44:57.194Z,266.05
2022-11-26T04:47:25.629Z,258.52
2022-11-26T04:49:54.044Z,250.32
2022-11-26T04:52:22.577Z,256.27
2022-11-26T04:54:51.046Z,229.88
2022-11-26T04:57:19.552Z,228.93
2022-11-26T04:59:49.237Z,257.63
2022-11-26T05:02:17.667Z,259.38
2022-11-26T05:04:46.299Z,282.67
2022-11-26T05:07:14.758Z,243.43
2022-11-26T05:09:43.431Z,262.25
2022-11-26T05:12:12.726Z,259.30
2022-11-26T05:14:41.179Z,254.70
2022-11-26T05:17:10.954Z,226.88
2022-11-26T05:19:39.397Z,259.05
2022-11-26T05:22:07.803Z,217.48
2022-11-26T05:24:36.828Z,207.00
2022-11-26T05:27:05.496Z,245.35
2022-11-26T05:29:33.863Z,240.25
2022-11-26T05:32:03.000Z,258.90
2022-11-26T05:34:32.866Z,256.88
2022-11-26T05:37:01.267Z,251.70
2022-11-26T05:39:29.871Z,249.60
2022-11-26T05:41:58.292Z,228.13
2022-11-26T05:44:26.819Z,239.95
2022-11-26T05:46:55.280Z,227.05
2022-11-26T05:49:23.766Z,260.10
2022-11-26T05:51:53.463Z,238.85
2022-11-26T05:54:21.891Z,265.98
2022-11-26T05:56:53.128Z,272.00
2022-11-26T05:59:25.436Z,235.82
2022-11-26T06:01:53.939Z,236.98
2022-11-26T06:04:22.396Z,246.13
2022-11-26T06:06:52.226Z,238.27
2022-11-26T06:09:20.758Z,220.88
2022-11-26T06:11:50.587Z,252.82
2022-11-26T06:14:19.198Z,242.82
2022-11-26T06:16:47.646Z,216.13
2022-11-26T06:19:16.213Z,253.68
2022-11-26T06:21:45.116Z,246.55
2022-11-26T06:24:14.867Z,209.40
2022-11-26T06:26:43.339Z,173.75
2022-11-26T06:29:11.793Z,233.80
2022-11-26T06:31:40.307Z,181.25
2022-11-26T06:34:08.751Z,208.15
2022-11-26T06:36:37.236Z,220.38
2022-11-26T06:39:05.725Z,177.25
2022-11-26T06:41:35.525Z,190.93
2022-11-26T06:44:04.698Z,203.65
2022-11-26T06:46:34.565Z,252.43
2022-11-26T06:49:04.215Z,243.45
2022-11-26T06:51:33.142Z,238.00
2022-11-26T06:54:01.669Z,252.75
2022-11-26T06:56:30.184Z,239.50
2022-11-26T06:59:00.386Z,217.07
2022-11-26T07:01:29.211Z,223.75
2022-11-26T07:03:58.099Z,241.43
2022-11-26T07:06:28.829Z,226.48
2022-11-26T07:08:59.332Z,276.42
2022-11-26T07:11:40.642Z,207.70
2022-11-26T07:14:11.169Z,247.45
2022-11-26T07:16:40.021Z,247.77
2022-11-26T07:19:08.581Z,243.10
2022-11-26T07:21:37.076Z,245.18
2022-11-26T07:24:06.202Z,250.93
2022-11-26T07:26:34.653Z,260.55
2022-11-26T07:29:03.202Z,235.38
2022-11-26T07:31:33.233Z,238.38
2022-11-26T07:34:01.682Z,240.90
2022-11-26T07:36:31.897Z,292.13
2022-11-26T07:39:02.336Z,286.95
2022-11-26T07:41:31.722Z,242.15
2022-11-26T07:44:00.121Z,271.52
2022-11-26T07:46:29.163Z,272.38
2022-11-26T07:48:59.181Z,256.48
2022-11-26T07:51:29.461Z,393.02
2022-11-26T07:53:59.340Z,263.08
2022-11-26T07:56:28.214Z,238.77
2022-11-26T07:58:56.687Z,272.08
2022-11-26T08:01:29.705Z,265.90
2022-11-26T08:04:03.375Z,276.13
2022-11-26T08:06:36.100Z,289.50
2022-11-26T08:09:10.409Z,282.90
2022-11-26T08:11:42.391Z,424.60
2022-11-26T08:14:22.016Z,323.70
2022-11-26T08:20:53.106Z,345.20
2022-11-26T08:24:43.377Z,318.90
2022-11-26T08:31:58.202Z,228.55
2022-11-26T08:35:44.393Z,357.98
2022-11-26T08:38:36.361Z,490.73
2022-11-26T08:47:44.841Z,408.45
2022-11-26T08:54:44.786Z,397.08
2022-11-26T08:57:42.116Z,433.83
2022-11-26T09:00:30.055Z,411.40
2022-11-26T09:02:58.697Z,460.20
2022-11-26T09:05:27.642Z,336.67
2022-11-26T09:19:09.274Z,347.90
2022-11-26T09:21:38.190Z,371.92
2022-11-26T09:24:07.443Z,341.10
2022-11-26T09:26:36.453Z,390.13
2022-11-26T09:29:05.299Z,327.55
2022-11-26T09:31:34.261Z,392.73
2022-11-26T09:34:03.986Z,347.67
2022-11-26T09:36:33.814Z,315.73
2022-11-26T09:39:02.909Z,371.50
2022-11-26T09:41:44.574Z,473.52
2022-11-26T09:44:30.089Z,358.13
2022-11-26T09:47:12.854Z,312.30
2022-11-26T09:49:49.859Z,489.73
2022-11-26T09:52:21.240Z,371.58
2022-11-26T09:54:50.758Z,359.10
2022-11-26T09:57:23.163Z,508.02
2022-11-26T09:59:52.490Z,368.25
2022-11-26T10:02:21.033Z,340.90
2022-11-26T10:04:50.168Z,445.50
2022-11-26T10:07:36.923Z,410.75
2022-11-26T10:10:12.191Z,371.40
2022-11-26T10:13:17.315Z,339.67
2022-11-26T10:15:43.929Z,340.90
2022-11-26T10:18:20.423Z,399.02
2022-11-26T10:20:59.065Z,361.38
2022-11-26T10:23:33.023Z,378.55
2022-11-26T10:26:07.815Z,314.30
2022-11-26T10:28:41.295Z,308.33
2022-11-26T10:31:16.866Z,330.13
2022-11-26T10:33:50.826Z,348.38
2022-11-26T10:36:24.378Z,294.38
2022-11-26T10:38:56.247Z,384.50
2022-11-26T10:41:26.887Z,351.17
2022-11-26T10:43:55.390Z,457.40
2022-11-26T10:46:37.530Z,459.35
2022-11-26T10:49:17.986Z,295.83
2022-11-26T10:51:49.331Z,325.02
2022-11-26T10:54:31.229Z,315.30
2022-11-26T10:57:05.237Z,257.05
2022-11-26T10:59:40.674Z,319.63
2022-11-26T11:02:28.891Z,256.63
2022-11-26T11:04:58.502Z,435.30
2022-11-26T11:07:35.411Z,265.17
2022-11-26T11:10:06.831Z,288.70
2022-11-26T11:12:35.306Z,318.17
2022-11-26T11:15:22.569Z,299.38
2022-11-26T11:17:58.045Z,443.73
2022-11-26T11:20:34.875Z,353.33
2022-11-26T11:23:06.017Z,303.63
2022-11-26T11:25:36.933Z,424.48
2022-11-26T11:28:12.208Z,312.65
2022-11-26T11:30:42.327Z,334.50
2022-11-26T11:33:21.016Z,369.33
2022-11-26T11:36:04.233Z,449.85
2022-11-26T11:38:34.247Z,437.17
2022-11-26T11:41:06.936Z,456.63
2022-11-26T11:43:37.834Z,337.88
2022-11-26T11:46:15.539Z,340.50
2022-11-26T11:48:50.932Z,360.13
2022-11-26T11:51:25.863Z,358.17
2022-11-26T11:54:02.410Z,356.70
2022-11-26T11:56:35.703Z,354.25
2022-11-26T11:59:17.069Z,350.10
2022-11-26T12:02:00.731Z,316.55
2022-11-26T12:04:54.835Z,287.83
2022-11-26T12:07:33.275Z,351.23
2022-11-26T12:10:23.108Z,307.30
2022-11-26T12:12:58.018Z,328.15
2022-11-26T12:15:29.940Z,449.48
2022-11-26T12:18:01.929Z,357.25
2022-11-26T12:20:35.262Z,353.13
2022-11-26T12:23:23.065Z,357.77
2022-11-26T12:25:56.293Z,250.70
2022-11-26T12:28:29.134Z,248.32
2022-11-26T12:31:14.501Z,272.63
2022-11-26T12:34:52.050Z,266.40
2022-11-26T12:37:26.693Z,257.25
2022-11-26T12:39:59.224Z,222.10
2022-11-26T12:42:29.576Z,343.38
2022-11-26T12:45:07.319Z,199.55
2022-11-26T12:47:39.498Z,358.95
2022-11-26T12:50:16.147Z,358.90
2022-11-26T12:52:49.648Z,269.08
2022-11-26T12:55:21.634Z,355.52
2022-11-26T12:57:52.442Z,427.88
2022-11-26T13:00:26.147Z,293.67
2022-11-26T13:02:56.182Z,280.88
2022-11-26T13:05:31.055Z,225.70
2022-11-26T13:08:19.306Z,301.15
2022-11-26T13:11:10.429Z,193.57
2022-11-26T13:13:45.095Z,245.55
2022-11-26T13:16:21.267Z,382.35
2022-11-26T13:18:55.450Z,270.65
2022-11-26T13:21:33.028Z,349.75
2022-11-26T13:24:28.892Z,249.82
2022-11-26T13:27:17.880Z,226.88
2022-11-26T13:30:01.044Z,224.90
2022-11-26T13:32:49.801Z,361.40
2022-11-26T13:35:24.170Z,356.17
2022-11-26T13:38:04.629Z,291.60
2022-11-26T13:40:58.589Z,528.75
2022-11-26T13:43:54.165Z,209.48
2022-11-26T13:46:23.928Z,226.50
2022-11-26T13:48:59.914Z,258.98
2022-11-26T13:51:33.572Z,293.67
2022-11-26T13:54:08.049Z,401.55
2022-11-26T13:56:37.164Z,418.60
2022-11-26T13:59:13.292Z,224.18
2022-11-26T14:01:42.370Z,402.50
2022-11-26T14:04:13.424Z,269.33
2022-11-26T14:07:19.455Z,349.65
2022-11-26T14:09:50.369Z,323.02
2022-11-26T14:12:20.281Z,277.30
2022-11-26T14:14:49.055Z,298.60
2022-11-26T14:17:25.258Z,282.17
2022-11-26T14:20:06.899Z,358.85
2022-11-26T14:22:36.411Z,244.52
2022-11-26T14:25:07.205Z,313.13
2022-11-26T14:27:37.427Z,207.00
2022-11-26T14:30:19.879Z,322.08
2022-11-26T14:33:10.109Z,209.48
2022-11-26T14:35:41.017Z,203.38
2022-11-26T14:38:24.389Z,344.90
2022-11-26T14:40:59.287Z,230.52
2022-11-26T14:43:27.847Z,319.48
2022-11-26T14:46:10.225Z,275.90
2022-11-26T14:48:43.671Z,352.65
2022-11-26T14:51:13.391Z,330.58
2022-11-26T14:53:45.586Z,290.08
2022-11-26T14:56:14.012Z,321.38
2022-11-26T14:58:45.684Z,271.08
2022-11-26T15:01:21.277Z,260.60
2022-11-26T15:03:59.051Z,424.23
2022-11-26T15:06:34.737Z,292.23
2022-11-26T15:09:08.098Z,354.30
2022-11-26T15:11:38.126Z,285.85
2022-11-26T15:14:06.538Z,348.23
2022-11-26T15:16:37.933Z,327.85
2022-11-26T15:19:07.050Z,497.27
2022-11-26T15:21:37.522Z,427.83
2022-11-26T15:24:10.014Z,404.02
2022-11-26T15:26:40.157Z,349.48
2022-11-26T15:29:31.636Z,437.80
2022-11-26T15:32:00.351Z,365.23
2022-11-26T15:34:29.355Z,390.20
2022-11-26T15:36:59.222Z,345.13
2022-11-26T15:39:29.765Z,358.52
2022-11-26T15:42:04.323Z,408.33
2022-11-26T15:44:37.753Z,369.33
2022-11-26T15:47:13.779Z,396.20
2022-11-26T15:49:42.538Z,423.30
2022-11-26T15:52:13.966Z,404.70
2022-11-26T15:55:10.728Z,363.00
2022-11-26T15:57:34.551Z,281.70
2022-11-26T16:00:05.769Z,321.95
2022-11-26T16:02:34.337Z,351.52
2022-11-26T16:05:03.806Z,501.00
2022-11-26T16:07:34.727Z,406.33
2022-11-26T16:10:22.010Z,400.08
2022-11-26T16:13:14.814Z,361.13
2022-11-26T16:15:52.103Z,329.75
2022-11-26T16:18:23.555Z,341.27
2022-11-26T16:20:52.142Z,374.17
2022-11-26T16:23:29.310Z,388.13
2022-11-26T16:26:17.450Z,469.15
2022-11-26T16:28:47.068Z,338.42
2022-11-26T16:31:16.158Z,398.70
2022-11-26T16:33:45.319Z,389.73
2022-11-26T16:36:19.920Z,335.95
2022-11-26T16:38:50.169Z,437.95
2022-11-26T16:41:20.182Z,394.63
2022-11-26T16:43:48.917Z,343.90
2022-11-26T16:46:18.629Z,301.10
2022-11-26T16:48:48.318Z,352.27
2022-11-26T16:51:16.671Z,369.27
2022-11-26T16:53:45.506Z,339.55
2022-11-26T16:56:21.451Z,484.15
2022-11-26T16:58:51.009Z,340.73
2022-11-26T17:01:19.535Z,286.75
2022-11-26T17:03:55.321Z,338.65
2022-11-26T17:06:27.065Z,432.52
2022-11-26T17:08:56.848Z,423.50
2022-11-26T17:11:26.866Z,398.80
2022-11-26T17:13:55.628Z,429.98
2022-11-26T17:16:26.803Z,369.88
2022-11-26T17:19:05.630Z,317.85
2022-11-26T17:21:34.019Z,373.27
2022-11-26T17:24:02.378Z,356.80
2022-11-26T17:26:32.472Z,360.75
2022-11-26T17:29:02.251Z,427.90
2022-11-26T17:31:31.017Z,426.63
2022-11-26T17:33:59.521Z,414.40
2022-11-26T17:36:30.655Z,531.35
2022-11-26T17:39:01.377Z,547.63
2022-11-26T17:44:49.360Z,420.63
2022-11-26T17:47:19.438Z,440.02
2022-11-26T17:49:48.639Z,469.00
2022-11-26T17:52:17.510Z,437.50
2022-11-26T17:54:46.547Z,410.67
2022-11-26T17:57:16.229Z,441.30
2022-11-26T17:59:48.837Z,416.67
2022-11-26T18:02:28.612Z,365.52
2022-11-26T18:05:05.018Z,361.73
2022-11-26T18:07:33.503Z,435.08
2022-11-26T18:10:02.425Z,406.00
2022-11-26T18:12:50.720Z,436.88
2022-11-26T18:15:22.904Z,433.40
2022-11-26T18:17:52.992Z,375.23
2022-11-26T18:20:30.061Z,380.60
2022-11-26T18:23:00.612Z,371.83
2022-11-26T18:25:33.955Z,400.40
2022-11-26T18:28:03.119Z,427.65
2022-11-26T18:30:35.521Z,434.83
2022-11-26T18:33:06.770Z,483.65
2022-11-26T18:35:35.281Z,444.05
2022-11-26T18:38:05.705Z,436.75
2022-11-26T18:40:34.153Z,474.42
2022-11-26T18:43:02.676Z,460.65
2022-11-26T18:45:34.841Z,450.05
2022-11-26T18:48:03.167Z,450.10
2022-11-26T18:50:31.639Z,459.05
2022-11-26T18:53:00.125Z,486.38
2022-11-26T18:55:28.685Z,456.38
2022-11-26T18:57:57.246Z,547.40
2022-11-26T19:00:28.850Z,486.42
2022-11-26T19:03:03.776Z,478.02
2022-11-26T19:05:32.384Z,457.48
2022-11-26T19:08:01.092Z,493.58
2022-11-26T19:10:29.654Z,479.63
2022-11-26T19:12:58.252Z,472.95
2022-11-26T19:15:28.994Z,451.58
2022-11-26T19:18:07.193Z,466.70
2022-11-26T19:20:36.219Z,519.53
2022-11-26T19:23:09.278Z,450.77
2022-11-26T19:25:37.956Z,467.13
2022-11-26T19:28:06.690Z,482.40
2022-11-26T19:30:59.714Z,452.30
2022-11-26T19:34:03.625Z,468.20
2022-11-26T19:36:32.501Z,442.27
2022-11-26T19:39:13.372Z,441.10
2022-11-26T19:41:41.831Z,440.90
2022-11-26T19:44:10.361Z,481.50
2022-11-26T19:46:41.299Z,440.55
2022-11-26T19:49:13.223Z,451.15
2022-11-26T19:51:42.147Z,451.20
2022-11-26T19:54:11.382Z,588.80
2022-11-26T19:56:40.169Z,453.17
2022-11-26T19:59:08.973Z,490.33
2022-11-26T20:01:37.480Z,486.55
2022-11-26T20:04:07.278Z,484.30
2022-11-26T20:06:38.149Z,438.10
2022-11-26T20:09:08.133Z,464.73
2022-11-26T20:11:38.541Z,430.88
2022-11-26T20:14:09.471Z,433.38
2022-11-26T20:16:39.251Z,445.20
2022-11-26T20:19:07.710Z,460.10
2022-11-26T20:21:37.727Z,417.85
2022-11-26T20:24:09.373Z,399.85
2022-11-26T20:26:39.259Z,443.00
2022-11-26T20:29:09.696Z,452.60
2022-11-26T20:31:41.776Z,434.42
2022-11-26T20:34:10.544Z,446.40
2022-11-26T20:36:43.206Z,490.40
2022-11-26T20:39:16.094Z,447.38
2022-11-26T20:41:44.630Z,463.25
2022-11-26T20:44:13.824Z,463.35
2022-11-26T20:46:42.874Z,439.58
2022-11-26T20:49:11.993Z,451.90
2022-11-26T20:51:41.674Z,444.48
2022-11-26T20:54:10.492Z,464.65
2022-11-26T20:56:39.067Z,443.50
2022-11-26T20:59:09.741Z,454.05
2022-11-26T21:01:38.468Z,451.00
2022-11-26T21:04:08.217Z,423.15
2022-11-26T21:06:37.147Z,420.33
2022-11-26T21:09:07.905Z,413.98
2022-11-26T21:11:36.535Z,452.25
2022-11-26T21:14:08.489Z,426.75
2022-11-26T21:16:39.278Z,423.80
2022-11-26T21:19:07.661Z,420.52
2022-11-26T21:21:36.102Z,433.67
2022-11-26T21:24:06.190Z,398.73
2022-11-26T21:26:34.774Z,430.92
2022-11-26T21:29:03.779Z,428.88
2022-11-26T21:31:33.110Z,450.42
2022-11-26T21:34:03.933Z,429.80
2022-11-26T21:36:34.398Z,393.73
2022-11-26T21:39:03.179Z,417.38
2022-11-26T21:41:33.494Z,409.42
2022-11-26T21:44:03.859Z,402.40
2022-11-26T21:46:37.798Z,404.52
2022-11-26T21:49:06.877Z,421.63
2022-11-26T21:51:35.425Z,428.90
2022-11-26T21:54:03.912Z,405.85
2022-11-26T21:56:34.083Z,367.05
2022-11-26T21:59:03.022Z,426.55
2022-11-26T22:01:32.715Z,422.02
2022-11-26T22:04:02.902Z,420.08
2022-11-26T22:06:31.454Z,398.05
2022-11-26T22:09:00.155Z,416.45
2022-11-26T22:11:29.818Z,407.23
2022-11-26T22:13:59.854Z,385.65
2022-11-26T22:16:29.550Z,411.52
2022-11-26T22:18:58.395Z,386.63
2022-11-26T22:21:29.194Z,418.80
2022-11-26T22:23:57.916Z,372.23
2022-11-26T22:26:26.605Z,410.65
2022-11-26T22:28:55.515Z,408.25
2022-11-26T22:31:27.210Z,409.60
2022-11-26T22:33:56.880Z,433.45
2022-11-26T22:36:25.472Z,418.80
2022-11-26T22:38:53.898Z,466.55
2022-11-26T22:41:22.908Z,402.95
2022-11-26T22:43:51.441Z,407.65
2022-11-26T22:46:21.298Z,422.58
2022-11-26T22:48:52.683Z,457.85
2022-11-26T22:51:21.644Z,425.10
2022-11-26T22:53:51.808Z,387.08
2022-11-26T22:56:20.544Z,380.55
2022-11-26T22:58:49.604Z,373.88
2022-11-26T23:01:21.194Z,356.83
2022-11-26T23:03:51.355Z,381.65
2022-11-26T23:06:21.058Z,364.60
2022-11-26T23:08:50.031Z,381.50
2022-11-26T23:11:20.358Z,380.67
2022-11-26T23:13:50.098Z,376.95
2022-11-26T23:16:19.706Z,365.95
2022-11-26T23:18:48.328Z,375.92
2022-11-26T23:21:20.164Z,377.60
2022-11-26T23:23:48.717Z,343.15
2022-11-26T23:26:24.893Z,343.17
2022-11-26T23:28:55.358Z,308.48
2022-11-26T23:31:25.583Z,361.23
2022-11-26T23:33:54.126Z,344.42
2022-11-26T23:36:24.154Z,354.05
2022-11-26T23:38:52.706Z,368.02
2022-11-26T23:41:21.103Z,361.13
2022-11-26T23:43:49.960Z,391.83
2022-11-26T23:46:19.774Z,413.08
2022-11-26T23:48:48.684Z,390.05
2022-11-26T23:51:19.198Z,369.45
2022-11-26T23:53:50.312Z,404.17
2022-11-26T23:56:20.875Z,378.08
2022-11-26T23:58:50.464Z,396.70
